createdAt,value
2023-05-22T00:02:18.511Z,4.60
2023-05-22T00:06:22.161Z,4.65
2023-05-22T00:10:25.293Z,4.00
2023-05-22T00:14:28.355Z,4.18
2023-05-22T00:18:32.818Z,4.15
2023-05-22T00:22:36.447Z,4.55
2023-05-22T00:26:39.545Z,4.85
2023-05-22T00:30:42.649Z,4.60
2023-05-22T00:34:47.152Z,4.15
2023-05-22T00:38:50.915Z,3.92
2023-05-22T00:42:54.275Z,4.68
2023-05-22T00:46:57.783Z,4.45
2023-05-22T00:51:03.451Z,4.05
2023-05-22T00:55:08.864Z,4.30
2023-05-22T00:59:12.143Z,4.40
2023-05-22T01:03:16.166Z,4.32
2023-05-22T01:07:21.679Z,4.32
2023-05-22T01:11:29.753Z,4.05
2023-05-22T01:15:41.065Z,4.43
2023-05-22T01:20:01.599Z,3.97
2023-05-22T01:24:37.385Z,4.60
2023-05-22T01:29:02.149Z,4.90
2023-05-22T01:33:09.202Z,4.57
2023-05-22T01:37:14.470Z,4.38
2023-05-22T01:41:18.740Z,4.88
2023-05-22T01:45:22.575Z,4.70
2023-05-22T01:49:27.787Z,4.72
2023-05-22T01:53:38.721Z,4.13
2023-05-22T01:57:50.340Z,4.38
2023-05-22T02:01:55.583Z,4.10
2023-05-22T02:06:03.375Z,3.95
2023-05-22T02:10:10.444Z,4.38
2023-05-22T02:14:13.916Z,4.15
2023-05-22T02:18:16.990Z,3.97
2023-05-22T02:22:22.204Z,4.22
2023-05-22T02:26:25.531Z,4.22
2023-05-22T02:30:28.657Z,4.38
2023-05-22T02:34:34.989Z,4.90
2023-05-22T02:38:39.536Z,4.82
2023-05-22T02:42:43.071Z,5.00
2023-05-22T02:46:47.549Z,5.00
2023-05-22T02:50:50.669Z,4.95
2023-05-22T02:54:55.105Z,5.18
2023-05-22T02:58:59.209Z,4.80
2023-05-22T03:03:02.425Z,4.57
2023-05-22T03:07:07.275Z,4.70
2023-05-22T03:11:11.912Z,4.80
2023-05-22T03:15:15.038Z,4.40
2023-05-22T03:19:19.605Z,4.63
2023-05-22T03:23:22.660Z,4.13
2023-05-22T03:27:27.278Z,4.45
2023-05-22T03:31:32.542Z,4.13
2023-05-22T03:35:44.568Z,4.18
2023-05-22T03:39:48.062Z,4.20
2023-05-22T03:44:05.283Z,4.50
2023-05-22T03:48:10.735Z,4.00
2023-05-22T03:52:13.904Z,3.80
2023-05-22T03:56:17.704Z,4.13
2023-05-22T04:00:26.970Z,3.55
2023-05-22T04:04:30.233Z,4.22
2023-05-22T04:08:33.450Z,4.15
2023-05-22T04:12:36.536Z,4.65
2023-05-22T04:16:40.963Z,5.00
2023-05-22T04:20:43.983Z,4.10
2023-05-22T04:24:49.182Z,4.15
2023-05-22T04:28:52.266Z,4.45
2023-05-22T04:32:56.780Z,4.07
2023-05-22T04:37:00.137Z,4.63
2023-05-22T04:41:03.467Z,4.47
2023-05-22T04:45:08.172Z,4.00
2023-05-22T04:49:12.565Z,4.80
2023-05-22T04:53:15.726Z,4.70
2023-05-22T04:57:18.906Z,4.50
2023-05-22T05:01:22.777Z,4.53
2023-05-22T05:05:27.350Z,4.50
2023-05-22T05:09:30.889Z,5.05
2023-05-22T05:13:34.151Z,4.35
2023-05-22T05:17:37.383Z,4.65
2023-05-22T05:21:42.312Z,4.68
2023-05-22T05:25:45.623Z,5.18
2023-05-22T05:29:50.150Z,4.70
2023-05-22T05:34:01.805Z,5.00
2023-05-22T05:38:25.476Z,4.60
2023-05-22T05:42:29.669Z,3.92
2023-05-22T05:46:36.342Z,4.30
2023-05-22T05:50:39.690Z,4.13
2023-05-22T05:54:47.564Z,4.75
2023-05-22T05:58:55.193Z,4.55
2023-05-22T06:03:25.685Z,4.03
2023-05-22T06:07:44.583Z,4.25
2023-05-22T06:11:49.165Z,4.32
2023-05-22T06:15:52.263Z,4.03
2023-05-22T06:19:55.366Z,4.22
2023-05-22T06:23:58.837Z,4.22
2023-05-22T06:28:03.400Z,3.78
2023-05-22T06:32:07.343Z,4.22
2023-05-22T06:36:12.626Z,4.47
2023-05-22T06:40:15.879Z,4.10
2023-05-22T06:44:32.817Z,3.80
2023-05-22T06:48:41.989Z,3.83
2023-05-22T06:52:53.708Z,3.40
2023-05-22T06:56:57.552Z,3.80
2023-05-22T07:01:05.095Z,3.60
2023-05-22T07:05:17.189Z,4.03
2023-05-22T07:09:28.545Z,4.03
2023-05-22T07:13:32.192Z,3.80
2023-05-22T07:17:36.725Z,4.22
2023-05-22T07:21:40.095Z,4.35
2023-05-22T07:25:44.480Z,3.75
2023-05-22T07:29:49.696Z,3.65
2023-05-22T07:33:56.086Z,3.55
2023-05-22T07:37:59.280Z,3.60
2023-05-22T07:42:03.017Z,3.20
2023-05-22T07:46:09.463Z,3.30
2023-05-22T07:50:21.963Z,3.22
2023-05-22T07:54:25.262Z,3.40
2023-05-22T07:58:28.485Z,3.90
2023-05-22T08:02:33.732Z,3.72
2023-05-22T08:06:39.607Z,3.70
2023-05-22T08:11:01.770Z,4.00
2023-05-22T08:15:06.956Z,3.45
2023-05-22T08:19:11.125Z,3.80
2023-05-22T08:23:15.692Z,3.60
2023-05-22T08:27:18.737Z,4.22
2023-05-22T08:31:22.902Z,4.40
2023-05-22T08:35:25.964Z,4.18
2023-05-22T08:39:31.350Z,3.40
2023-05-22T08:43:34.460Z,3.90
2023-05-22T08:47:39.017Z,3.67
2023-05-22T08:51:43.369Z,4.15
2023-05-22T08:55:47.918Z,3.90
2023-05-22T08:59:51.752Z,3.90
2023-05-22T09:03:55.559Z,4.10
2023-05-22T09:08:08.451Z,3.83
2023-05-22T09:12:20.983Z,3.70
2023-05-22T09:16:27.110Z,3.78
2023-05-22T09:20:30.217Z,3.92
2023-05-22T09:24:39.489Z,3.22
2023-05-22T09:28:44.473Z,3.33
2023-05-22T09:32:49.936Z,3.45
2023-05-22T09:36:55.132Z,3.60
2023-05-22T09:40:58.504Z,3.33
2023-05-22T09:45:05.966Z,3.47
2023-05-22T09:49:16.523Z,3.60
2023-05-22T09:53:37.944Z,3.63
2023-05-22T09:57:43.961Z,3.67
2023-05-22T10:01:49.702Z,3.53
2023-05-22T10:05:55.789Z,3.50
2023-05-22T10:10:05.426Z,3.45
2023-05-22T10:14:09.805Z,3.60
2023-05-22T10:18:16.026Z,3.60
2023-05-22T10:22:21.326Z,3.08
2023-05-22T10:26:25.050Z,3.17
2023-05-22T10:30:33.934Z,3.03
2023-05-22T10:35:12.870Z,3.17
2023-05-22T10:39:32.402Z,3.05
2023-05-22T10:43:40.122Z,2.70
2023-05-22T10:47:43.712Z,3.00
2023-05-22T10:51:48.389Z,2.72
2023-05-22T10:55:52.780Z,2.80
2023-05-22T11:00:09.685Z,2.70
2023-05-22T11:04:13.429Z,3.08
2023-05-22T11:08:39.549Z,2.70
2023-05-22T11:12:42.728Z,3.25
2023-05-22T11:16:45.833Z,3.03
2023-05-22T11:20:49.170Z,3.20
2023-05-22T11:24:53.599Z,3.10
2023-05-22T11:28:56.865Z,3.17
2023-05-22T11:33:01.222Z,3.40
2023-05-22T11:37:04.921Z,2.75
2023-05-22T11:41:10.075Z,2.92
2023-05-22T11:45:13.325Z,2.80
2023-05-22T11:49:17.350Z,3.20
2023-05-22T11:53:21.167Z,2.95
2023-05-22T11:57:25.582Z,3.00
2023-05-22T12:01:28.629Z,3.05
2023-05-22T12:05:33.244Z,3.00
2023-05-22T12:09:36.431Z,3.15
2023-05-22T12:13:41.353Z,2.97
2023-05-22T12:17:44.765Z,2.70
2023-05-22T12:21:47.795Z,3.03
2023-05-22T12:25:59.014Z,3.28
2023-05-22T12:30:10.438Z,3.05
2023-05-22T12:34:14.169Z,2.75
2023-05-22T12:38:17.207Z,3.05
2023-05-22T12:42:20.373Z,2.90
2023-05-22T12:46:24.757Z,3.15
2023-05-22T12:50:27.800Z,3.10
2023-05-22T12:54:31.541Z,3.20
2023-05-22T12:58:34.635Z,3.17
2023-05-22T13:02:39.099Z,3.00
2023-05-22T13:06:42.307Z,2.83
2023-05-22T13:10:45.534Z,2.70
2023-05-22T13:14:48.875Z,2.78
2023-05-22T13:18:53.326Z,2.83
2023-05-22T13:22:56.425Z,2.75
2023-05-22T13:26:59.485Z,2.88
2023-05-22T13:31:02.532Z,2.80
2023-05-22T13:35:07.829Z,2.95
2023-05-22T13:39:10.952Z,2.88
2023-05-22T13:43:14.495Z,2.75
2023-05-22T13:47:17.851Z,2.65
2023-05-22T13:51:22.326Z,2.80
2023-05-22T13:55:25.577Z,2.90
2023-05-22T13:59:28.911Z,2.88
2023-05-22T14:03:32.087Z,3.15
2023-05-22T14:07:36.580Z,3.25
2023-05-22T14:11:39.736Z,2.90
2023-05-22T14:15:43.394Z,2.92
2023-05-22T14:19:46.477Z,2.53
2023-05-22T14:23:50.970Z,2.70
2023-05-22T14:27:54.028Z,3.20
2023-05-22T14:32:04.146Z,3.10
2023-05-22T14:36:07.473Z,2.60
2023-05-22T14:40:12.468Z,2.88
2023-05-22T14:44:15.555Z,2.70
2023-05-22T14:48:18.665Z,2.67
2023-05-22T14:52:21.739Z,2.70
2023-05-22T14:56:26.646Z,2.88
2023-05-22T15:00:29.846Z,2.58
2023-05-22T15:04:32.905Z,2.70
2023-05-22T15:08:36.582Z,2.65
2023-05-22T15:12:41.178Z,2.92
2023-05-22T15:16:44.318Z,2.95
2023-05-22T15:20:47.581Z,3.22
2023-05-22T15:25:05.341Z,3.42
2023-05-22T15:29:09.901Z,2.88
2023-05-22T15:33:13.192Z,2.80
2023-05-22T15:37:16.293Z,3.28
2023-05-22T15:41:19.452Z,2.70
2023-05-22T15:45:23.877Z,2.70
2023-05-22T15:49:29.341Z,2.90
2023-05-22T15:53:34.020Z,3.00
2023-05-22T15:57:38.146Z,2.70
2023-05-22T16:01:42.583Z,3.20
2023-05-22T16:05:47.013Z,3.38
2023-05-22T16:09:50.350Z,2.90
2023-05-22T16:13:53.524Z,2.72
2023-05-22T16:17:58.132Z,3.10
2023-05-22T16:22:01.359Z,3.15
2023-05-22T16:26:04.461Z,2.88
2023-05-22T16:30:08.735Z,2.90
2023-05-22T16:34:13.390Z,2.85
2023-05-22T16:38:16.440Z,2.80
2023-05-22T16:42:19.467Z,2.78
2023-05-22T16:46:22.672Z,2.80
2023-05-22T16:50:27.334Z,3.08
2023-05-22T16:54:30.342Z,2.90
2023-05-22T16:58:34.097Z,2.92
2023-05-22T17:02:37.553Z,3.05
2023-05-22T17:06:42.315Z,3.00
2023-05-22T17:10:45.359Z,3.97
2023-05-22T17:14:48.574Z,2.95
2023-05-22T17:18:54.155Z,3.10
2023-05-22T17:22:59.287Z,3.13
2023-05-22T17:27:03.461Z,3.33
2023-05-22T17:31:07.128Z,2.97
2023-05-22T17:35:10.217Z,3.50
2023-05-22T17:39:14.601Z,2.80
2023-05-22T17:43:19.095Z,3.20
2023-05-22T17:47:22.217Z,3.28
2023-05-22T17:51:25.337Z,3.03
2023-05-22T17:55:29.728Z,3.28
2023-05-22T17:59:33.798Z,3.20
2023-05-22T18:03:36.930Z,3.40
2023-05-22T18:07:39.971Z,3.00
2023-05-22T18:11:44.449Z,3.33
2023-05-22T18:15:49.023Z,3.03
2023-05-22T18:19:52.093Z,3.10
2023-05-22T18:23:56.115Z,3.30
2023-05-22T18:28:00.659Z,3.20
2023-05-22T18:32:03.905Z,3.13
2023-05-22T18:36:07.072Z,3.42
2023-05-22T18:40:11.461Z,3.58
2023-05-22T18:44:15.892Z,3.42
2023-05-22T18:48:20.152Z,3.30
2023-05-22T18:52:25.761Z,3.30
2023-05-22T18:56:28.808Z,3.53
2023-05-22T19:00:33.355Z,3.35
2023-05-22T19:04:36.406Z,3.40
2023-05-22T19:08:40.418Z,3.50
2023-05-22T19:12:43.491Z,3.20
2023-05-22T19:16:48.030Z,3.55
2023-05-22T19:20:51.154Z,3.47
2023-05-22T19:24:54.183Z,3.67
2023-05-22T19:28:59.379Z,3.55
2023-05-22T19:33:04.477Z,3.85
2023-05-22T19:37:09.405Z,3.70
2023-05-22T19:41:12.466Z,3.20
2023-05-22T19:45:15.898Z,4.07
2023-05-22T19:49:20.337Z,3.95
2023-05-22T19:53:23.422Z,3.40
2023-05-22T19:57:27.155Z,3.80
2023-05-22T20:01:30.501Z,3.58
2023-05-22T20:05:35.003Z,3.88
2023-05-22T20:09:38.428Z,3.38
2023-05-22T20:13:41.449Z,3.78
2023-05-22T20:17:47.621Z,3.58
2023-05-22T20:21:52.544Z,3.80
2023-05-22T20:25:55.556Z,3.90
2023-05-22T20:30:00.075Z,3.70
2023-05-22T20:34:04.687Z,3.70
2023-05-22T20:38:09.877Z,3.72
2023-05-22T20:42:13.174Z,3.90
2023-05-22T20:46:16.355Z,3.85
2023-05-22T20:50:19.643Z,4.05
2023-05-22T20:54:24.053Z,3.97
2023-05-22T20:58:27.400Z,3.72
2023-05-22T21:02:31.052Z,3.92
2023-05-22T21:06:34.105Z,3.63
2023-05-22T21:10:38.661Z,3.83
2023-05-22T21:14:43.477Z,3.90
2023-05-22T21:18:46.838Z,3.97
2023-05-22T21:22:49.927Z,3.97
2023-05-22T21:26:54.387Z,4.45
2023-05-22T21:30:57.515Z,4.05
2023-05-22T21:35:00.602Z,4.15
2023-05-22T21:39:03.685Z,4.05
2023-05-22T21:43:08.050Z,4.00
2023-05-22T21:47:11.090Z,4.22
2023-05-22T21:51:14.152Z,3.72
2023-05-22T21:55:17.258Z,4.40
2023-05-22T21:59:21.781Z,3.80
2023-05-22T22:03:25.325Z,4.30
2023-05-22T22:07:28.404Z,3.90
2023-05-22T22:11:31.460Z,4.07
2023-05-22T22:15:36.779Z,4.78
2023-05-22T22:19:41.754Z,4.32
2023-05-22T22:23:44.768Z,4.38
2023-05-22T22:27:47.824Z,4.70
2023-05-22T22:31:52.934Z,4.40
2023-05-22T22:35:56.402Z,4.28
2023-05-22T22:39:59.459Z,4.82
2023-05-22T22:44:02.466Z,4.32
2023-05-22T22:48:07.041Z,4.60
2023-05-22T22:52:10.258Z,4.93
2023-05-22T22:56:13.455Z,4.85
2023-05-22T23:00:17.214Z,5.25
2023-05-22T23:04:21.975Z,4.65
2023-05-22T23:08:25.297Z,4.85
2023-05-22T23:12:28.327Z,4.97
2023-05-22T23:16:35.083Z,4.90
2023-05-22T23:20:39.610Z,4.72
2023-05-22T23:24:42.679Z,4.95
2023-05-22T23:28:45.751Z,4.88
2023-05-22T23:32:48.809Z,4.60
2023-05-22T23:36:53.272Z,4.68
2023-05-22T23:40:56.331Z,4.80
2023-05-22T23:44:59.357Z,4.57
2023-05-22T23:49:02.455Z,4.45
2023-05-22T23:53:07.012Z,5.10
2023-05-22T23:57:10.564Z,5.35
